Time;durP1;ratioP1;P1;durP2;ratioP2;P2;SDS_P1;SDS_P2;PMS_P1;PMS_P2;Temp;Humidity;BMP_temperature;BMP_pressure;BME280_temperature;BME280_humidity;BME280_pressure;Samples;Min_cycle;Max_cycle;Signal;HPM_P1;HPM_P2
2022/06/14 00:01:28;;;;;;;7.57;4.85;;;;;;;22.80;52.01;102578.22;5078016;28;20040;-53
2022/06/14 00:03:57;;;;;;;10.15;5.55;;;;;;;22.79;52.23;102582.75;5076037;28;20079;-53
2022/06/14 00:06:26;;;;;;;8.90;4.70;;;;;;;22.79;51.80;102579.19;5075848;28;20056;-52
2022/06/14 00:08:53;;;;;;;8.93;5.60;;;;;;;22.78;51.71;102575.66;5075820;28;20070;-54
2022/06/14 00:11:36;;;;;;;7.78;4.82;;;;;;;22.76;51.90;102568.69;5081070;28;20048;-53
2022/06/14 00:14:07;;;;;;;8.88;4.80;;;;;;;22.77;51.96;102575.81;5078325;28;20066;-54
2022/06/14 00:16:35;;;;;;;9.57;4.68;;;;;;;22.75;51.91;102575.06;5074188;28;20044;-53
2022/06/14 00:19:04;;;;;;;8.88;4.13;;;;;;;22.75;51.95;102577.78;5076026;28;20052;-54
2022/06/14 00:21:32;;;;;;;11.95;5.18;;;;;;;22.73;51.77;102567.13;5078821;28;20145;-54
2022/06/14 00:24:01;;;;;;;8.55;4.57;;;;;;;22.72;51.97;102560.03;5078778;28;20335;-53
2022/06/14 00:26:28;;;;;;;7.85;4.70;;;;;;;22.72;51.89;102570.84;5080312;28;20301;-52
2022/06/14 00:28:55;;;;;;;10.25;4.38;;;;;;;22.72;51.96;102569.97;5079828;28;20086;-53
2022/06/14 00:31:24;;;;;;;7.53;4.15;;;;;;;22.71;51.92;102570.97;5080747;28;20419;-54
2022/06/14 00:33:52;;;;;;;6.65;4.30;;;;;;;22.70;51.76;102563.84;5075821;28;20087;-53
2022/06/14 00:36:23;;;;;;;6.72;3.53;;;;;;;22.69;52.02;102572.97;5075823;28;20052;-54
2022/06/14 00:38:50;;;;;;;9.27;4.85;;;;;;;22.69;51.92;102570.25;5072865;28;20062;-53
2022/06/14 00:41:39;;;;;;;7.68;4.00;;;;;;;22.66;51.82;102574.94;5073511;28;20048;-54
2022/06/14 00:44:13;;;;;;;7.68;4.30;;;;;;;22.68;51.85;102580.22;5076027;28;20292;-52
2022/06/14 00:46:58;;;;;;;7.00;3.60;;;;;;;22.67;51.70;102576.66;5075045;28;20055;-53
2022/06/14 00:49:49;;;;;;;7.15;3.75;;;;;;;22.64;51.75;102571.53;5073961;28;20419;-53
2022/06/14 00:52:37;;;;;;;9.75;4.75;;;;;;;22.64;51.84;102568.84;5075058;28;20066;-54
2022/06/14 00:55:13;;;;;;;6.25;3.88;;;;;;;22.63;52.00;102567.13;5075679;28;20977;-54
2022/06/14 00:57:59;;;;;;;7.25;3.83;;;;;;;22.62;51.86;102565.41;5078330;28;20044;-52
2022/06/14 01:00:36;;;;;;;9.88;3.85;;;;;;;22.63;52.07;102564.44;5077486;28;20066;-52
2022/06/14 01:03:13;;;;;;;8.00;3.95;;;;;;;22.63;51.81;102560.84;5078084;28;20046;-52
2022/06/14 01:06:05;;;;;;;6.60;3.70;;;;;;;22.61;51.79;102550.19;5080574;28;20139;-53
2022/06/14 01:08:51;;;;;;;7.10;3.90;;;;;;;22.60;51.75;102553.91;5074811;28;20041;-53
2022/06/14 01:11:50;;;;;;;7.07;4.00;;;;;;;22.59;51.86;102548.63;5074690;28;20566;-53
2022/06/14 01:14:37;;;;;;;6.60;3.15;;;;;;;22.59;52.02;102538.69;5063871;28;20044;-54
2022/06/14 01:17:04;;;;;;;8.20;3.63;;;;;;;22.59;51.95;102541.38;5079753;28;20043;-54
2022/06/14 01:19:32;;;;;;;6.70;3.60;;;;;;;22.59;51.82;102540.50;5072044;28;20439;-53
2022/06/14 01:22:01;;;;;;;7.40;3.75;;;;;;;22.58;51.59;102542.38;5078200;28;20135;-54
2022/06/14 01:24:30;;;;;;;8.70;4.25;;;;;;;22.56;51.54;102544.38;5072939;28;20134;-53
2022/06/14 01:26:59;;;;;;;8.75;3.20;;;;;;;22.55;52.00;102531.88;5079892;28;20044;-52
2022/06/14 01:29:28;;;;;;;6.50;3.50;;;;;;;22.55;51.76;102537.28;5076519;28;20445;-54
2022/06/14 01:31:59;;;;;;;9.10;4.00;;;;;;;22.55;51.60;102541.78;5074722;28;20052;-53
2022/06/14 01:34:30;;;;;;;5.82;3.17;;;;;;;22.54;51.79;102532.00;5080641;28;20172;-54
2022/06/14 01:37:03;;;;;;;7.20;3.88;;;;;;;22.53;51.62;102524.88;5075775;28;20040;-53
2022/06/14 01:39:29;;;;;;;5.85;3.20;;;;;;;22.51;52.19;102533.13;5072952;28;20040;-53
2022/06/14 01:42:06;;;;;;;5.68;3.15;;;;;;;22.50;51.77;102517.91;5075553;28;20055;-54
2022/06/14 01:45:08;;;;;;;5.63;3.05;;;;;;;22.49;51.81;102518.06;5076244;28;20205;-53
2022/06/14 01:48:03;;;;;;;4.90;2.97;;;;;;;22.48;52.02;102519.91;5075668;28;20119;-54
2022/06/14 01:53:58;;;;;;;6.40;3.00;;;;;;;22.47;52.19;102523.59;5078584;28;20052;-54
2022/06/14 01:56:45;;;;;;;6.05;2.90;;;;;;;22.44;52.04;102518.50;5075244;28;20049;-53
2022/06/14 01:59:40;;;;;;;4.45;2.92;;;;;;;22.45;52.10;102522.03;5073192;28;20058;-52
2022/06/14 02:02:16;;;;;;;4.50;2.60;;;;;;;22.44;51.85;102517.63;5073545;28;20399;-52
2022/06/14 02:05:04;;;;;;;4.53;2.55;;;;;;;22.42;51.99;102523.16;5076052;28;20040;-53
2022/06/14 02:07:44;;;;;;;6.30;2.88;;;;;;;22.42;52.26;102528.56;5075346;28;20040;-53
2022/06/14 02:10:11;;;;;;;5.03;2.85;;;;;;;22.41;52.16;102530.41;5073233;28;20044;-53
2022/06/14 02:12:55;;;;;;;4.93;2.47;;;;;;;22.38;51.79;102525.28;5076282;28;20049;-53
2022/06/14 02:15:30;;;;;;;4.15;2.38;;;;;;;22.39;51.99;102518.91;5073141;28;20071;-53
2022/06/14 02:18:14;;;;;;;5.25;2.70;;;;;;;22.39;52.19;102518.91;5074552;28;20047;-54
2022/06/14 02:20:53;;;;;;;5.80;2.70;;;;;;;22.36;52.09;102516.50;5074528;28;20048;-53
2022/06/14 02:23:20;;;;;;;5.40;3.00;;;;;;;22.36;52.09;102513.78;5076145;28;20052;-54
2022/06/14 02:25:57;;;;;;;4.80;2.45;;;;;;;22.34;51.86;102515.75;5080288;28;20036;-52
2022/06/14 02:28:32;;;;;;;4.40;2.38;;;;;;;22.34;51.96;102514.91;5079171;28;20040;-52
2022/06/14 02:31:27;;;;;;;4.90;2.30;;;;;;;22.33;52.15;102511.38;5080459;28;20067;-52
2022/06/14 02:34:02;;;;;;;4.72;2.53;;;;;;;22.34;52.01;102506.81;5068404;28;20147;-53
2022/06/14 02:36:33;;;;;;;5.63;2.20;;;;;;;22.32;52.21;102509.66;5074639;28;20157;-53
2022/06/14 02:39:16;;;;;;;5.47;2.20;;;;;;;22.32;52.16;102508.81;5078110;28;20048;-53
2022/06/14 02:42:05;;;;;;;4.35;2.25;;;;;;;22.29;52.21;102501.84;5083619;28;20040;-52
2022/06/14 02:45:13;;;;;;;4.25;2.15;;;;;;;22.28;51.95;102502.00;5077662;28;20056;-54
2022/06/14 02:47:48;;;;;;;4.63;2.45;;;;;;;22.29;52.33;102503.69;5074818;28;20048;-52
2022/06/14 02:50:43;;;;;;;4.68;2.10;;;;;;;22.27;52.05;102505.66;5080932;28;20044;-52
2022/06/14 02:53:09;;;;;;;;;;;;;;;22.27;52.05;102505.66;5052077;28;20062;-54
2022/06/14 02:56:22;;;;;;;5.68;2.40;;;;;;;22.27;51.96;102497.56;5074095;28;19928;-53
2022/06/14 02:59:11;;;;;;;4.60;2.22;;;;;;;22.27;52.21;102497.56;5074896;28;20390;-49
2022/06/14 03:01:46;;;;;;;4.82;2.10;;;;;;;22.24;51.98;102500.56;5077968;28;20457;-52
2022/06/14 03:04:18;;;;;;;4.63;2.10;;;;;;;22.23;52.35;102499.72;5079641;28;20048;-53
2022/06/14 03:06:59;;;;;;;3.45;2.05;;;;;;;22.22;52.36;102502.53;5081830;28;21173;-50
2022/06/14 03:09:33;;;;;;;4.10;2.17;;;;;;;22.20;52.13;102497.28;5080776;28;20366;-52
2022/06/14 03:12:02;;;;;;;;;;;;;;;22.19;51.98;102495.56;5076486;28;20130;-52
2022/06/14 03:14:53;;;;;;;5.28;2.17;;;;;;;22.20;51.93;102500.00;5073989;28;21132;-52
2022/06/14 03:17:38;;;;;;;4.63;2.22;;;;;;;22.21;52.29;102492.75;5075974;28;20335;-52
2022/06/14 03:20:05;;;;;;;4.80;2.05;;;;;;;22.19;51.92;102484.75;5079549;28;20321;-53
2022/06/14 03:22:55;;;;;;;5.03;1.90;;;;;;;22.16;52.30;102479.66;5077959;28;20428;-53
2022/06/14 03:25:25;;;;;;;4.20;1.95;;;;;;;22.16;52.07;102476.97;5076440;28;20044;-53
2022/06/14 03:27:56;;;;;;;2.95;1.88;;;;;;;22.16;52.11;102480.50;5078781;28;20058;-53
2022/06/14 03:30:28;;;;;;;3.78;2.38;;;;;;;22.14;52.33;102485.19;5078680;28;20043;-52
2022/06/14 03:33:04;;;;;;;5.63;2.45;;;;;;;22.14;52.38;102487.88;5080443;28;20442;-54
2022/06/14 03:35:34;;;;;;;3.33;1.70;;;;;;;22.14;52.05;102490.59;5074654;28;20041;-53
2022/06/14 03:38:11;;;;;;;4.47;1.48;;;;;;;22.13;52.36;102494.28;5076789;28;20339;-54
2022/06/14 03:40:41;;;;;;;4.95;1.83;;;;;;;22.13;52.23;102488.88;5074328;28;20063;-53
2022/06/14 03:43:08;;;;;;;3.92;1.98;;;;;;;22.14;52.26;102487.03;5076274;28;20070;-54
2022/06/14 03:45:51;;;;;;;3.40;2.10;;;;;;;22.13;52.15;102488.03;5076890;28;20052;-53
2022/06/14 03:48:18;;;;;;;2.93;1.83;;;;;;;22.13;52.19;102482.63;5076155;28;20063;-54
2022/06/14 03:51:13;;;;;;;3.55;1.83;;;;;;;22.12;52.18;102491.72;5074695;28;20054;-54
2022/06/14 03:54:12;;;;;;;2.90;1.60;;;;;;;22.12;52.15;102489.84;5071794;28;20079;-52
2022/06/14 03:57:09;;;;;;;5.60;2.22;;;;;;;22.12;52.11;102489.00;5080747;28;20047;-52
2022/06/14 04:00:01;;;;;;;3.85;1.80;;;;;;;22.10;52.32;102489.13;5077566;28;20062;-53
2022/06/14 04:03:05;;;;;;;3.05;1.60;;;;;;;22.10;52.24;102482.88;5078507;28;20047;-54
2022/06/14 04:05:32;;;;;;;3.40;1.67;;;;;;;22.10;51.81;102482.88;5075842;28;20096;-54
2022/06/14 04:08:07;;;;;;;3.78;1.63;;;;;;;22.09;52.01;102484.72;5076834;28;20056;-53
2022/06/14 04:10:49;;;;;;;3.38;1.70;;;;;;;22.08;52.18;102484.88;5075192;28;20054;-53
2022/06/14 04:13:43;;;;;;;4.70;1.70;;;;;;;22.07;52.13;102484.03;5074874;28;20044;-53
2022/06/14 04:16:19;;;;;;;2.50;1.40;;;;;;;22.07;52.47;102484.03;5078595;28;20138;-52
2022/06/14 04:19:08;;;;;;;10.63;2.33;;;;;;;22.08;52.27;102491.13;5075115;28;20059;-53
2022/06/14 04:21:58;;;;;;;13.40;4.38;;;;;;;22.10;52.36;102493.69;5078626;28;20036;-52
2022/06/14 04:24:37;;;;;;;27.27;6.03;;;;;;;22.10;52.30;102504.47;5078303;28;20056;-53
2022/06/14 04:27:10;;;;;;;22.88;5.35;;;;;;;22.10;52.23;102499.09;5079478;28;20056;-53
2022/06/14 04:30:01;;;;;;;28.13;6.38;;;;;;;22.08;52.38;102496.53;5082462;28;20213;-54
2022/06/14 04:32:41;;;;;;;21.50;5.95;;;;;;;22.10;51.92;102505.34;5077944;28;20048;-54
2022/06/14 04:35:17;;;;;;;25.42;7.03;;;;;;;22.10;51.95;102505.34;5081055;28;20048;-51
2022/06/14 04:37:50;;;;;;;25.10;6.30;;;;;;;22.12;51.79;102507.91;5078903;28;20055;-54
2022/06/14 04:40:34;;;;;;;22.75;7.15;;;;;;;22.11;52.03;102507.06;5077105;28;20297;-54
2022/06/14 04:43:08;;;;;;;18.77;6.60;;;;;;;22.12;52.06;102511.47;5082965;28;20127;-53
2022/06/14 04:45:43;;;;;;;21.58;6.32;;;;;;;22.14;51.90;102511.34;5075637;28;20353;-53
2022/06/14 04:48:21;;;;;;;29.10;6.65;;;;;;;22.14;51.95;102509.50;5076656;28;20443;-54
2022/06/14 04:51:00;;;;;;;20.23;6.65;;;;;;;22.15;52.05;102508.53;5080735;28;20066;-54
2022/06/14 04:53:35;;;;;;;21.67;7.40;;;;;;;22.16;51.63;102515.63;5078705;28;20075;-54
2022/06/14 04:56:17;;;;;;;16.35;6.03;;;;;;;22.17;51.84;102517.31;5077422;28;20127;-54
2022/06/14 04:59:02;;;;;;;20.13;6.45;;;;;;;22.20;51.81;102523.44;5078776;28;20064;-53
2022/06/14 05:01:45;;;;;;;15.98;5.60;;;;;;;22.22;51.71;102522.31;5077086;28;20044;-53
2022/06/14 05:04:19;;;;;;;;;;;;;;;22.24;51.51;102525.72;5079034;28;20323;-54
2022/06/14 05:06:53;;;;;;;18.58;5.65;;;;;;;22.28;51.57;102521.75;5077145;28;20007;-54
2022/06/14 05:09:28;;;;;;;15.57;5.50;;;;;;;22.29;51.63;102519.91;5077964;28;20139;-53
2022/06/14 05:12:27;;;;;;;31.35;5.78;;;;;;;22.29;51.55;102522.59;5075098;28;20036;-53
2022/06/14 05:15:05;;;;;;;19.60;6.15;;;;;;;22.32;51.26;102519.63;5074486;28;20043;-53
2022/06/14 05:17:53;;;;;;;12.45;5.03;;;;;;;22.34;51.03;102523.03;5075755;28;20391;-53
2022/06/14 05:20:31;;;;;;;14.75;5.20;;;;;;;22.35;51.41;102522.00;5074773;28;20054;-54
2022/06/14 05:23:14;;;;;;;10.32;4.80;;;;;;;22.35;51.09;102522.00;5075788;28;20054;-55
2022/06/14 05:25:56;;;;;;;12.27;4.45;;;;;;;22.35;51.20;102528.31;5076245;28;20054;-53
2022/06/14 05:28:45;;;;;;;9.85;4.47;;;;;;;22.36;50.98;102527.31;5075724;28;20076;-53
2022/06/14 05:31:24;;;;;;;11.23;4.05;;;;;;;22.36;51.09;102521.91;5078365;28;20443;-52
2022/06/14 05:33:59;;;;;;;9.18;3.78;;;;;;;22.35;50.63;102527.41;5076917;28;20048;-52
2022/06/14 05:36:38;;;;;;;10.55;4.00;;;;;;;22.36;51.01;102531.84;5079024;28;20097;-53
2022/06/14 05:39:23;;;;;;;10.95;3.90;;;;;;;22.35;50.83;102522.00;5075107;28;20044;-54
2022/06/14 05:42:00;;;;;;;8.93;3.10;;;;;;;22.34;50.51;102518.47;5075373;28;20127;-53
2022/06/14 05:44:33;;;;;;;7.97;2.97;;;;;;;22.34;50.47;102525.72;5074690;28;20446;-53
2022/06/14 05:47:08;;;;;;;10.48;3.80;;;;;;;22.33;50.74;102521.31;5076999;28;20087;-54
2022/06/14 05:49:41;;;;;;;9.35;3.03;;;;;;;22.34;50.73;102531.13;5078894;28;20063;-53
2022/06/14 05:52:18;;;;;;;8.23;3.45;;;;;;;22.31;50.61;102529.59;5080892;28;20032;-53
2022/06/14 05:55:13;;;;;;;9.10;2.97;;;;;;;22.31;50.44;102518.78;5074252;28;20391;-54
2022/06/14 05:57:55;;;;;;;7.68;2.38;;;;;;;22.32;50.39;102522.31;5078157;28;20058;-52
2022/06/14 06:00:30;;;;;;;7.88;2.40;;;;;;;22.32;49.98;102525.03;5077258;28;20665;-54
2022/06/14 06:03:28;;;;;;;9.35;2.22;;;;;;;22.32;50.02;102519.63;5085215;28;20384;-54
2022/06/14 06:06:04;;;;;;;6.38;2.25;;;;;;;22.33;49.88;102526.72;5074502;28;20051;-53
2022/06/14 06:08:51;;;;;;;7.05;2.17;;;;;;;22.34;49.67;102526.56;5082316;28;20036;-53
2022/06/14 06:11:37;;;;;;;5.03;2.50;;;;;;;22.33;49.74;102527.56;5082585;28;20123;-53
2022/06/14 06:14:13;;;;;;;6.30;2.53;;;;;;;22.33;49.58;102527.56;5080720;28;20054;-54
2022/06/14 06:17:24;;;;;;;5.13;1.92;;;;;;;22.33;49.52;102526.72;5112219;27;20078;-53
2022/06/14 06:19:52;;;;;;;5.97;1.70;;;;;;;22.34;49.74;102528.41;5070298;28;20044;-54
2022/06/14 06:22:23;;;;;;;5.57;1.98;;;;;;;22.34;49.48;102533.81;5083442;28;20042;-55
2022/06/14 06:24:58;;;;;;;7.10;2.10;;;;;;;22.33;49.58;102532.13;5082326;28;20086;-53
2022/06/14 06:27:35;;;;;;;5.53;1.90;;;;;;;22.33;49.58;102519.47;5081090;28;20055;-54
2022/06/14 06:30:12;;;;;;;5.45;1.60;;;;;;;22.33;48.90;102532.13;5077961;28;20411;-54
2022/06/14 06:32:40;;;;;;;4.43;1.75;;;;;;;22.33;48.86;102530.28;5083140;28;20032;-53
2022/06/14 06:35:09;;;;;;;3.92;1.58;;;;;;;22.33;49.01;102526.72;5076860;28;20052;-52
2022/06/14 06:37:39;;;;;;;5.13;1.67;;;;;;;22.32;49.00;102531.28;5081247;28;20040;-53
2022/06/14 06:40:22;;;;;;;4.65;1.23;;;;;;;22.33;49.12;102537.53;5080256;28;20040;-54
2022/06/14 06:43:09;;;;;;;5.07;1.92;;;;;;;22.33;49.05;102532.97;5081989;28;20128;-54
2022/06/14 06:45:41;;;;;;;3.95;1.25;;;;;;;22.33;49.45;102538.38;5085067;28;20044;-54
2022/06/14 06:48:21;;;;;;;3.05;1.60;;;;;;;22.34;49.24;102533.81;5080598;28;20054;-53
2022/06/14 06:51:05;;;;;;;3.83;1.40;;;;;;;22.34;49.15;102533.81;5078352;28;20050;-53
2022/06/14 06:53:47;;;;;;;2.78;1.50;;;;;;;22.34;49.14;102531.97;5078276;28;20055;-54
2022/06/14 06:56:32;;;;;;;2.63;1.42;;;;;;;22.33;49.17;102532.97;5080395;28;20079;-54
2022/06/14 06:59:30;;;;;;;4.38;1.20;;;;;;;22.33;49.07;102532.13;5077069;28;20067;-54
2022/06/14 07:02:03;;;;;;;2.95;1.52;;;;;;;22.34;49.21;102533.81;5081664;28;20047;-53
2022/06/14 07:07:45;;;;;;;6.90;1.30;;;;;;;22.33;49.01;102532.13;5081673;28;20051;-53
2022/06/14 07:10:18;;;;;;;3.50;1.27;;;;;;;22.33;49.10;102532.13;5078223;28;20044;-53
2022/06/14 07:12:52;;;;;;;;;;;;;;;22.33;48.72;102553.75;5081335;28;20119;-54
2022/06/14 07:15:27;;;;;;;2.38;1.25;;;;;;;22.35;48.59;102535.53;5078077;28;20039;-52
2022/06/14 07:18:01;;;;;;;3.70;1.10;;;;;;;22.35;48.80;102546.34;5078357;28;20329;-54
2022/06/14 07:20:33;;;;;;;;;;;;;;;22.34;48.57;102537.38;5078088;28;20124;-53
2022/06/14 07:23:12;;;;;;;2.20;0.98;;;;;;;22.35;48.42;102539.09;5085186;28;20002;-54
2022/06/14 07:26:07;;;;;;;6.38;1.65;;;;;;;22.35;48.79;102540.94;5082216;28;20151;-55
2022/06/14 07:28:43;;;;;;;3.63;1.02;;;;;;;22.35;48.39;102541.81;5079176;28;20059;-54
2022/06/14 07:31:36;;;;;;;3.60;1.30;;;;;;;22.34;48.30;102536.53;5079332;28;20061;-52
2022/06/14 07:34:05;;;;;;;3.60;1.13;;;;;;;22.35;48.31;102535.53;5079875;28;20048;-54
2022/06/14 07:36:49;;;;;;;6.53;1.10;;;;;;;22.35;48.35;102538.22;5080649;28;20050;-53
2022/06/14 07:39:39;;;;;;;3.03;1.13;;;;;;;22.35;48.23;102531.00;5082701;28;20052;-54
2022/06/14 07:42:36;;;;;;;3.20;1.00;;;;;;;22.35;48.30;102539.09;5082463;28;20047;-54
2022/06/14 07:45:09;;;;;;;4.22;1.48;;;;;;;22.36;48.13;102543.50;5081027;28;20135;-52
2022/06/14 07:48:04;;;;;;;3.65;1.10;;;;;;;22.38;47.93;102532.56;5083651;28;20420;-55
2022/06/14 07:50:51;;;;;;;5.80;1.20;;;;;;;22.37;47.39;102536.25;5083179;28;20048;-54
2022/06/14 07:53:26;;;;;;;3.63;1.00;;;;;;;22.38;47.29;102536.09;5080644;28;20194;-54
2022/06/14 07:56:16;;;;;;;6.65;1.58;;;;;;;22.38;47.12;102529.84;5081794;28;20055;-53
2022/06/14 07:59:10;;;;;;;2.78;1.00;;;;;;;22.38;47.32;102546.06;5085621;28;20058;-55
2022/06/14 08:01:49;;;;;;;4.28;1.73;;;;;;;22.38;47.32;102535.25;5083965;28;20043;-53
2022/06/14 08:04:24;;;;;;;1.70;0.80;;;;;;;22.39;47.65;102543.22;5087227;28;20044;-54
2022/06/14 08:07:09;;;;;;;2.88;1.10;;;;;;;22.39;47.60;102537.84;5084237;28;20122;-53
2022/06/14 08:09:45;;;;;;;3.70;1.10;;;;;;;22.40;47.60;102538.69;5082844;28;20423;-52
2022/06/14 08:12:31;;;;;;;2.28;1.00;;;;;;;22.39;47.41;102537.84;5079805;28;20463;-53
2022/06/14 08:15:08;;;;;;;2.83;1.10;;;;;;;22.39;47.60;102532.44;5079098;28;20334;-53
2022/06/14 08:18:06;;;;;;;3.17;1.00;;;;;;;22.40;47.38;102536.81;5076883;28;20056;-52
2022/06/14 08:20:50;;;;;;;2.58;0.93;;;;;;;22.41;47.57;102532.28;5044820;28;20131;-54
2022/06/14 08:23:27;;;;;;;4.05;0.80;;;;;;;22.43;47.21;102530.28;5083102;28;20050;-53
2022/06/14 08:26:03;;;;;;;7.57;1.52;;;;;;;22.43;47.50;102532.97;5078329;28;20119;-53
2022/06/14 08:28:39;;;;;;;16.52;4.60;;;;;;;22.42;47.24;102536.69;5081458;28;20050;-53
2022/06/14 08:31:23;;;;;;;13.77;4.65;;;;;;;22.44;47.11;102533.84;5079853;28;20335;-52
2022/06/14 08:33:59;;;;;;;26.75;6.40;;;;;;;22.44;46.92;102529.28;5076797;28;20059;-54
2022/06/14 08:36:50;;;;;;;20.13;6.20;;;;;;;22.45;47.18;102527.44;5079519;28;20052;-55
2022/06/14 08:39:49;;;;;;;20.13;5.30;;;;;;;22.46;47.14;102523.75;5079240;28;20052;-55
2022/06/14 08:42:33;;;;;;;18.60;6.03;;;;;;;22.47;47.00;102529.00;5061185;28;20037;-53
2022/06/14 08:45:13;;;;;;;29.42;5.88;;;;;;;22.47;47.36;102522.72;5078139;28;20127;-53
2022/06/14 08:47:51;;;;;;;16.58;5.57;;;;;;;22.47;47.37;102520.88;5080620;28;20048;-54
2022/06/14 08:50:36;;;;;;;29.40;6.18;;;;;;;22.48;47.70;102517.22;5080458;28;20426;-55
2022/06/14 08:53:22;;;;;;;25.48;6.60;;;;;;;22.49;47.74;102513.50;5077644;28;20044;-55
2022/06/14 08:56:03;;;;;;;20.60;6.20;;;;;;;22.51;47.62;102519.59;5078629;28;20131;-54
2022/06/14 08:59:07;;;;;;;28.58;5.72;;;;;;;22.53;47.68;102525.72;5081820;28;20047;-54
2022/06/14 09:01:36;;;;;;;18.83;5.40;;;;;;;22.55;47.71;102515.66;5079503;28;20048;-52
2022/06/14 09:04:14;;;;;;;18.15;5.93;;;;;;;22.56;47.66;102508.38;5080085;28;20067;-53
2022/06/14 09:07:18;;;;;;;16.20;4.85;;;;;;;22.58;47.95;102512.63;5078230;28;20047;-54
2022/06/14 09:10:22;;;;;;;16.58;5.80;;;;;;;22.60;47.68;102509.81;5077180;28;20052;-54
2022/06/14 09:13:44;;;;;;;15.10;4.53;;;;;;;22.62;48.07;102514.06;5078900;28;20119;-54
2022/06/14 09:16:33;;;;;;;17.95;4.65;;;;;;;22.64;47.61;102503.97;5005244;28;20060;-55
2022/06/14 09:19:12;;;;;;;12.75;4.25;;;;;;;22.67;47.78;102508.22;5006917;28;20050;-53
2022/06/14 09:21:56;;;;;;;15.80;4.18;;;;;;;22.69;47.85;102508.09;5071765;28;20054;-53
2022/06/14 09:24:56;;;;;;;15.10;4.72;;;;;;;22.71;47.84;102504.22;5080503;28;20137;-54
2022/06/14 09:27:29;;;;;;;15.05;3.67;;;;;;;22.73;47.58;102502.25;5080063;28;20044;-54
2022/06/14 09:30:14;;;;;;;12.85;4.00;;;;;;;22.75;47.67;102502.94;5077337;28;20135;-53
2022/06/14 09:33:14;;;;;;;10.25;3.67;;;;;;;22.77;47.33;102497.41;5080242;28;20131;-53
2022/06/14 09:35:55;;;;;;;13.05;3.40;;;;;;;22.78;47.73;102496.41;5078532;28;20066;-53
2022/06/14 09:38:37;;;;;;;10.60;3.30;;;;;;;22.80;47.57;102494.41;5082769;28;20056;-53
2022/06/14 09:41:28;;;;;;;9.73;3.17;;;;;;;22.80;47.46;102494.41;5083904;28;20048;-53
2022/06/14 09:44:27;;;;;;;8.05;3.13;;;;;;;22.81;47.69;102488.84;5084864;28;20131;-53
2022/06/14 09:47:21;;;;;;;13.23;3.40;;;;;;;22.82;47.55;102489.69;5061105;28;20063;-52
2022/06/14 09:49:50;;;;;;;11.13;3.38;;;;;;;22.83;47.27;102500.38;5079114;28;20136;-52
2022/06/14 09:52:41;;;;;;;10.88;3.10;;;;;;;22.83;47.72;102491.41;5077953;28;20044;-54
2022/06/14 09:55:32;;;;;;;10.20;3.10;;;;;;;22.82;47.69;102485.16;5077862;28;20051;-53
2022/06/14 09:58:47;;;;;;;11.45;3.25;;;;;;;22.83;47.53;102492.25;5079098;28;20127;-54
2022/06/14 10:01:21;;;;;;;12.93;3.72;;;;;;;22.85;47.23;102481.31;5038798;28;20060;-53
2022/06/14 10:03:54;;;;;;;11.00;3.30;;;;;;;22.86;47.57;102491.13;5080508;28;20101;-54
2022/06/14 10:06:55;;;;;;;13.70;3.27;;;;;;;22.84;47.23;102483.16;5076384;28;20048;-53
2022/06/14 10:09:38;;;;;;;7.57;3.00;;;;;;;22.87;47.43;102488.28;5082763;28;20490;-54
2022/06/14 10:12:19;;;;;;;10.20;3.17;;;;;;;22.89;47.18;102480.88;5079183;28;20136;-53
2022/06/14 10:15:01;;;;;;;7.15;2.85;;;;;;;22.90;47.31;102484.41;5077380;28;20154;-53
2022/06/14 10:17:58;;;;;;;7.80;2.75;;;;;;;22.90;47.45;102482.59;5077273;28;20048;-54
2022/06/14 10:21:11;;;;;;;6.72;2.38;;;;;;;22.92;47.17;102479.78;5080816;28;20090;-54
2022/06/14 10:23:54;;;;;;;9.68;3.20;;;;;;;22.93;47.16;102478.75;5018523;28;20053;-54
2022/06/14 10:29:56;;;;;;;6.38;2.47;;;;;;;22.93;47.54;102476.06;5078349;28;20050;-54
2022/06/14 10:32:56;;;;;;;10.18;2.67;;;;;;;22.93;47.11;102470.66;5074874;28;20043;-54
2022/06/14 10:35:43;;;;;;;5.90;2.88;;;;;;;22.95;47.60;102457.81;5081652;28;20431;-53
2022/06/14 10:38:25;;;;;;;6.25;2.30;;;;;;;22.96;47.57;102464.09;5076116;28;20450;-54
2022/06/14 10:41:26;;;;;;;6.13;2.08;;;;;;;22.96;47.42;102458.69;5076559;28;20102;-53
2022/06/14 10:44:00;;;;;;;8.73;2.40;;;;;;;22.98;47.22;102456.69;5084921;28;20159;-53
2022/06/14 10:46:33;;;;;;;7.93;2.78;;;;;;;22.98;47.35;102452.13;5080587;28;20510;-54
2022/06/14 10:49:46;;;;;;;5.57;2.63;;;;;;;22.98;47.06;102448.56;5079993;28;20041;-52
2022/06/14 10:52:53;;;;;;;5.45;2.25;;;;;;;23.00;47.55;102447.44;5083753;28;20040;-54
2022/06/14 10:55:47;;;;;;;5.63;2.08;;;;;;;23.01;47.17;102449.13;5078905;28;20040;-52
2022/06/14 10:58:57;;;;;;;8.05;2.25;;;;;;;23.02;47.55;102450.81;5078514;28;20083;-53
2022/06/14 11:01:41;;;;;;;7.10;2.13;;;;;;;23.03;46.98;102444.41;5083371;28;20041;-53
2022/06/14 11:04:28;;;;;;;5.80;2.22;;;;;;;23.03;47.34;102440.84;5081759;28;20119;-53
2022/06/14 11:07:30;;;;;;;7.60;2.15;;;;;;;23.04;47.37;102426.38;5079344;28;20537;-54
2022/06/14 11:10:05;;;;;;;5.18;2.03;;;;;;;23.06;47.36;102422.50;5077726;28;20049;-53
2022/06/14 11:12:38;;;;;;;4.70;2.10;;;;;;;23.08;47.15;102425.91;5084725;28;20079;-54
2022/06/14 11:15:24;;;;;;;6.57;1.90;;;;;;;23.09;47.18;102415.94;5082337;28;20108;-54
2022/06/14 11:18:01;;;;;;;6.85;2.42;;;;;;;23.11;47.12;102424.75;5056617;28;20050;-54
2022/06/14 11:20:44;;;;;;;6.00;2.08;;;;;;;23.13;47.24;102418.19;5088261;28;20040;-52
2022/06/14 11:23:18;;;;;;;6.07;1.73;;;;;;;23.13;46.81;102420.91;5086870;28;20386;-54
2022/06/14 11:26:03;;;;;;;4.15;2.10;;;;;;;23.15;46.66;102415.31;5086123;28;20083;-52
2022/06/14 11:28:42;;;;;;;6.25;2.28;;;;;;;23.16;46.91;102422.47;5084057;28;20037;-53
2022/06/14 11:31:27;;;;;;;5.30;1.67;;;;;;;23.17;47.22;102417.91;5081563;28;20072;-54
2022/06/14 11:34:21;;;;;;;5.35;1.88;;;;;;;23.17;47.34;102412.50;5085572;28;20394;-51
2022/06/14 11:37:19;;;;;;;3.20;1.40;;;;;;;23.20;47.36;102417.59;5078959;28;20525;-53
2022/06/14 11:40:01;;;;;;;6.10;1.70;;;;;;;23.20;47.18;102415.75;5076087;28;20143;-54
2022/06/14 11:42:54;;;;;;;4.95;1.77;;;;;;;23.22;47.10;102408.31;5080799;28;20419;-53
2022/06/14 11:45:50;;;;;;;5.95;1.83;;;;;;;23.24;47.25;102408.19;5081813;28;20132;-53
2022/06/14 11:48:19;;;;;;;4.63;1.70;;;;;;;23.26;47.17;102406.16;5081641;28;20044;-55
2022/06/14 11:51:05;;;;;;;4.18;1.70;;;;;;;23.26;47.25;102403.47;5081792;28;20127;-52
2022/06/14 11:53:57;;;;;;;2.78;1.40;;;;;;;23.27;47.07;102399.75;5079362;28;20052;-54
2022/06/14 11:56:46;;;;;;;5.35;1.60;;;;;;;23.28;47.08;102404.19;5076398;28;20127;-53
2022/06/14 11:59:50;;;;;;;3.15;1.25;;;;;;;23.27;47.25;102399.75;5079555;28;20039;-53
2022/06/14 12:02:38;;;;;;;3.13;1.40;;;;;;;23.30;47.28;102404.88;5079477;28;20040;-53
2022/06/14 12:05:23;;;;;;;5.15;1.80;;;;;;;23.30;46.76;102396.75;5080644;28;20054;-52
2022/06/14 12:08:13;;;;;;;3.20;1.75;;;;;;;23.31;46.88;102398.44;5082326;28;20423;-52
2022/06/14 12:11:05;;;;;;;4.03;1.60;;;;;;;23.31;47.30;102395.75;5079224;28;20052;-54
2022/06/14 12:14:03;;;;;;;3.10;1.20;;;;;;;23.32;46.85;102392.91;5078356;28;20438;-53
2022/06/14 12:16:42;;;;;;;9.98;2.55;;;;;;;23.33;46.91;102397.31;5071846;28;20646;-54
2022/06/14 12:19:12;;;;;;;6.97;1.73;;;;;;;23.34;47.01;102398.16;5079243;28;20123;-54
2022/06/14 12:21:51;;;;;;;18.20;1.92;;;;;;;23.36;47.20;102394.31;5080514;28;20058;-55
2022/06/14 12:26:34;;;;;;;32.95;2.08;;;;;;;23.37;47.32;102389.75;5080967;28;20058;-53
2022/06/14 12:27:08;;;;;;;23.08;2.05;;;;;;;23.38;47.23;102386.03;5078806;28;20131;-53
2022/06/14 12:29:40;;;;;;;13.90;1.70;;;;;;;23.40;47.36;102387.59;5077278;28;20040;-52
2022/06/14 12:32:18;;;;;;;11.27;1.70;;;;;;;23.40;47.25;102375.91;5080658;28;20125;-54
2022/06/14 12:34:53;;;;;;;9.65;1.27;;;;;;;23.42;47.05;102370.34;5081326;28;20126;-54
2022/06/14 12:37:40;;;;;;;7.40;1.70;;;;;;;23.43;46.99;102370.19;5075918;28;20058;-54
2022/06/14 12:40:13;;;;;;;5.70;1.35;;;;;;;23.44;46.87;102374.59;5081565;28;20123;-55
2022/06/14 12:42:57;;;;;;;11.75;1.70;;;;;;;23.45;47.53;102361.91;5080631;28;20055;-54